Time;durP1;ratioP1;P1;durP2;ratioP2;P2;SDS_P1;SDS_P2;PMS_P1;PMS_P2;Temp;Humidity;BMP_temperature;BMP_pressure;BME280_temperature;BME280_humidity;BME280_pressure;Samples;Min_cycle;Max_cycle;Signal;HPM_P1;HPM_P2
2022/03/31 04:01:59;;;;;;;8.70;6.97;;;2.20;99.90;;;;;;5193142;23;20293;-67
2022/03/31 04:04:25;;;;;;;8.73;6.40;;;2.30;99.90;;;;;;4935594;29;20202;-69
2022/03/31 04:06:52;;;;;;;8.95;6.00;;;2.20;99.90;;;;;;4922027;29;20213;-68
2022/03/31 04:09:19;;;;;;;10.15;5.35;;;2.20;99.90;;;;;;4936236;29;20218;-68
2022/03/31 04:11:45;;;;;;;7.82;6.38;;;2.20;99.90;;;;;;4920534;29;20226;-68
2022/03/31 04:14:12;;;;;;;7.25;5.47;;;2.20;99.90;;;;;;4916984;29;20218;-68
2022/03/31 04:16:39;;;;;;;8.52;6.63;;;2.20;99.90;;;;;;4911397;29;20285;-66
2022/03/31 04:19:07;;;;;;;6.20;5.53;;;2.20;99.90;;;;;;4901083;29;20261;-68
2022/03/31 04:21:34;;;;;;;7.00;6.30;;;2.30;99.90;;;;;;4899617;29;20238;-68
2022/03/31 04:24:01;;;;;;;11.93;6.50;;;2.30;99.90;;;;;;4898175;29;20659;-68
2022/03/31 04:26:28;;;;;;;6.57;5.97;;;2.30;99.90;;;;;;4906694;29;20365;-68
2022/03/31 04:28:55;;;;;;;10.00;6.40;;;2.30;99.90;;;;;;4916283;29;20273;-67
2022/03/31 04:31:22;;;;;;;10.77;6.13;;;2.30;99.90;;;;;;4914279;29;20607;-68
2022/03/31 04:33:48;;;;;;;10.13;5.72;;;2.30;99.90;;;;;;4914791;29;20294;-67
2022/03/31 04:36:17;;;;;;;6.95;6.35;;;2.30;99.90;;;;;;4915179;29;20230;-68
2022/03/31 04:38:45;;;;;;;6.63;5.43;;;2.30;99.90;;;;;;4911887;29;20277;-67
2022/03/31 04:41:12;;;;;;;6.68;5.95;;;2.30;99.90;;;;;;4913729;29;20301;-68
2022/03/31 04:43:39;;;;;;;10.20;7.03;;;2.30;99.90;;;;;;4915804;29;20399;-67
2022/03/31 04:46:06;;;;;;;9.10;7.28;;;2.30;99.90;;;;;;4914974;29;20202;-67
2022/03/31 04:48:35;;;;;;;13.38;6.45;;;2.40;99.90;;;;;;4909998;29;20251;-68
2022/03/31 04:51:02;;;;;;;4.15;3.85;;;2.30;99.90;;;;;;4898315;29;20218;-67
2022/03/31 04:53:30;;;;;;;9.18;6.63;;;2.30;99.90;;;;;;4915105;29;20207;-66
2022/03/31 04:55:56;;;;;;;6.38;5.55;;;2.30;99.90;;;;;;4912834;29;20254;-66
2022/03/31 04:58:23;;;;;;;7.97;5.43;;;2.30;99.90;;;;;;4908497;29;20211;-68
2022/03/31 05:00:50;;;;;;;6.80;4.88;;;2.30;99.90;;;;;;4914193;29;20658;-69
2022/03/31 05:03:16;;;;;;;6.30;4.55;;;2.30;99.90;;;;;;4897070;29;20263;-68
2022/03/31 05:05:43;;;;;;;8.23;6.25;;;2.30;99.90;;;;;;4912085;29;20243;-67
2022/03/31 05:08:11;;;;;;;10.43;6.75;;;2.30;99.90;;;;;;4913071;29;20229;-68
2022/03/31 05:10:39;;;;;;;6.88;5.07;;;2.30;99.90;;;;;;4897818;29;20231;-67
2022/03/31 05:13:05;;;;;;;6.18;5.63;;;2.30;99.90;;;;;;4912591;29;20206;-69
2022/03/31 05:15:32;;;;;;;5.95;5.32;;;2.30;99.90;;;;;;4915006;29;20227;-67
2022/03/31 05:17:59;;;;;;;6.90;5.78;;;2.30;99.90;;;;;;4902085;29;20209;-66
2022/03/31 05:20:25;;;;;;;6.53;5.80;;;2.30;99.90;;;;;;4902506;29;20652;-67
2022/03/31 05:22:52;;;;;;;5.88;5.30;;;2.30;99.90;;;;;;4911041;29;20991;-67
2022/03/31 05:25:19;;;;;;;11.32;6.63;;;2.30;99.90;;;;;;4896243;29;20199;-68
2022/03/31 05:27:49;;;;;;;7.22;6.43;;;2.30;99.90;;;;;;4902995;29;20211;-67
2022/03/31 05:30:18;;;;;;;5.35;5.03;;;2.30;99.90;;;;;;4910846;29;20225;-67
2022/03/31 05:32:45;;;;;;;6.05;5.55;;;2.30;99.90;;;;;;4912394;29;20207;-67
2022/03/31 05:35:13;;;;;;;6.15;5.75;;;2.30;99.90;;;;;;4914755;29;21036;-67
2022/03/31 05:37:40;;;;;;;10.32;6.85;;;2.30;99.90;;;;;;4912375;29;20273;-66
2022/03/31 05:40:09;;;;;;;7.57;5.50;;;2.30;99.90;;;;;;4913855;29;20215;-67
2022/03/31 05:42:36;;;;;;;10.93;6.97;;;2.30;99.90;;;;;;4913206;29;20226;-68
2022/03/31 05:45:06;;;;;;;5.03;4.63;;;2.30;99.90;;;;;;4914862;29;20766;-68
2022/03/31 05:47:33;;;;;;;7.28;5.68;;;2.30;99.90;;;;;;4907371;29;20225;-68
2022/03/31 05:50:00;;;;;;;10.65;7.18;;;2.20;99.90;;;;;;4913915;29;20214;-68
2022/03/31 05:52:26;;;;;;;8.00;4.40;;;2.20;99.90;;;;;;4913649;29;20306;-68
2022/03/31 05:54:53;;;;;;;7.57;5.43;;;2.30;99.90;;;;;;4914297;29;20632;-67
2022/03/31 05:57:20;;;;;;;7.03;6.28;;;2.20;99.90;;;;;;4910742;29;20240;-67
2022/03/31 05:59:46;;;;;;;8.02;6.15;;;2.20;99.90;;;;;;4901429;29;20266;-67
2022/03/31 06:02:14;;;;;;;10.07;4.82;;;2.20;99.90;;;;;;4911199;29;20238;-67
2022/03/31 06:04:41;;;;;;;6.38;5.80;;;2.20;99.90;;;;;;4901202;29;20210;-67
2022/03/31 06:07:08;;;;;;;8.05;5.38;;;2.30;99.90;;;;;;4913497;29;20210;-67
2022/03/31 06:09:35;;;;;;;9.77;8.25;;;2.30;99.90;;;;;;4912483;29;20207;-67
2022/03/31 06:12:01;;;;;;;8.50;7.07;;;2.30;99.90;;;;;;4914614;29;20707;-68
2022/03/31 06:14:28;;;;;;;10.90;6.35;;;2.30;99.90;;;;;;4897361;29;20207;-66
2022/03/31 06:16:55;;;;;;;5.40;4.80;;;2.20;99.90;;;;;;4912968;29;20363;-69
2022/03/31 06:19:23;;;;;;;6.70;6.10;;;2.30;99.90;;;;;;4910786;29;20585;-69
2022/03/31 06:21:49;;;;;;;7.32;4.95;;;2.30;99.90;;;;;;4903623;29;20234;-69
2022/03/31 06:24:16;;;;;;;11.80;6.30;;;2.20;99.90;;;;;;4914282;29;20211;-68
2022/03/31 06:26:43;;;;;;;3.97;3.67;;;2.20;99.90;;;;;;4916540;29;20214;-67
2022/03/31 06:29:09;;;;;;;5.72;5.15;;;2.20;99.90;;;;;;4903819;29;20218;-67
2022/03/31 06:31:38;;;;;;;4.80;4.47;;;2.20;99.90;;;;;;4914416;29;20715;-68
2022/03/31 06:34:05;;;;;;;9.88;5.43;;;2.10;99.90;;;;;;4914231;29;20210;-68
2022/03/31 06:36:33;;;;;;;11.02;5.32;;;2.20;99.90;;;;;;4917856;29;20230;-67
2022/03/31 06:39:00;;;;;;;9.90;6.15;;;2.20;99.90;;;;;;4917449;29;20211;-68
2022/03/31 06:41:26;;;;;;;9.02;6.07;;;2.20;99.90;;;;;;4913873;29;20719;-68
2022/03/31 06:43:53;;;;;;;6.85;4.70;;;2.20;99.90;;;;;;4915304;29;20699;-67
2022/03/31 06:46:20;;;;;;;11.02;6.07;;;2.20;99.90;;;;;;4917198;29;20202;-68
2022/03/31 06:48:47;;;;;;;4.50;3.90;;;2.30;99.90;;;;;;4900043;29;20203;-67
2022/03/31 06:51:14;;;;;;;6.50;5.90;;;2.30;99.90;;;;;;4908842;29;20245;-67
2022/03/31 06:53:43;;;;;;;5.35;4.85;;;2.40;99.90;;;;;;4918063;29;20265;-66
2022/03/31 06:56:13;;;;;;;5.25;4.90;;;2.40;99.90;;;;;;4916916;29;20241;-67
2022/03/31 06:58:40;;;;;;;4.47;4.18;;;2.50;99.90;;;;;;4917701;29;20215;-67
2022/03/31 07:01:07;;;;;;;4.75;4.35;;;2.50;99.90;;;;;;4914082;29;20719;-66
2022/03/31 07:03:36;;;;;;;8.13;5.30;;;2.60;99.90;;;;;;4916797;29;20207;-69
2022/03/31 07:06:03;;;;;;;5.60;5.07;;;2.70;99.90;;;;;;4914433;29;20254;-67
2022/03/31 07:08:30;;;;;;;6.40;5.72;;;2.80;99.90;;;;;;4917352;29;20273;-67
2022/03/31 07:10:59;;;;;;;4.85;4.20;;;2.80;99.90;;;;;;4911867;29;20282;-68
2022/03/31 07:13:26;;;;;;;6.07;4.88;;;2.80;99.90;;;;;;4910608;29;20258;-68
2022/03/31 07:15:52;;;;;;;4.40;3.72;;;2.90;99.90;;;;;;4914171;29;20230;-67
2022/03/31 07:18:19;;;;;;;3.85;3.55;;;2.90;99.90;;;;;;4915753;29;20229;-66
2022/03/31 07:20:46;;;;;;;3.47;3.28;;;2.90;99.90;;;;;;4916722;29;20550;-67
2022/03/31 07:23:13;;;;;;;4.55;4.25;;;3.00;99.90;;;;;;4911988;29;20278;-67
2022/03/31 07:25:40;;;;;;;5.03;4.38;;;3.00;99.90;;;;;;4916631;29;20221;-66
2022/03/31 07:28:08;;;;;;;4.85;4.45;;;3.10;99.90;;;;;;4915870;29;20830;-67
2022/03/31 07:30:35;;;;;;;4.32;3.85;;;3.20;99.90;;;;;;4913956;29;20373;-68
2022/03/31 07:33:04;;;;;;;4.15;3.80;;;3.30;99.90;;;;;;4916854;29;20273;-67
2022/03/31 07:35:32;;;;;;;5.50;4.97;;;3.30;99.90;;;;;;4916201;29;20317;-68
2022/03/31 07:38:03;;;;;;;5.05;4.65;;;3.40;99.90;;;;;;4916803;29;20274;-68
2022/03/31 07:40:30;;;;;;;5.35;4.47;;;3.50;99.90;;;;;;4911589;29;20209;-68
2022/03/31 07:42:57;;;;;;;5.35;4.85;;;3.50;99.90;;;;;;4916937;29;20218;-67
2022/03/31 07:45:26;;;;;;;7.05;3.65;;;3.60;99.90;;;;;;4907457;29;20203;-67
2022/03/31 07:47:52;;;;;;;5.70;5.20;;;3.70;99.90;;;;;;4906652;29;20207;-67
2022/03/31 07:50:20;;;;;;;4.20;3.90;;;3.70;99.90;;;;;;4914855;29;20914;-67
2022/03/31 07:52:47;;;;;;;4.20;3.83;;;3.70;99.90;;;;;;4903908;29;20651;-67
2022/03/31 07:55:15;;;;;;;4.95;3.35;;;3.70;99.90;;;;;;4910105;29;20221;-67
2022/03/31 07:57:42;;;;;;;3.30;2.55;;;3.70;99.90;;;;;;4907920;29;20247;-66
2022/03/31 08:00:11;;;;;;;3.17;2.97;;;3.70;99.90;;;;;;4897967;29;20202;-67
2022/03/31 08:02:39;;;;;;;3.38;3.28;;;3.70;99.90;;;;;;4908021;29;20318;-67
2022/03/31 08:05:06;;;;;;;4.22;3.78;;;3.70;99.90;;;;;;4907408;29;20293;-67
2022/03/31 08:07:33;;;;;;;6.43;4.43;;;3.80;99.90;;;;;;4913253;29;20289;-67
2022/03/31 08:10:00;;;;;;;2.38;2.25;;;3.90;99.90;;;;;;4905682;29;20318;-67
2022/03/31 08:12:26;;;;;;;3.83;3.05;;;3.80;99.90;;;;;;4913893;29;20281;-67
2022/03/31 08:14:53;;;;;;;3.70;3.40;;;3.90;99.90;;;;;;4916160;29;20341;-66
2022/03/31 08:17:20;;;;;;;2.42;2.33;;;3.90;99.90;;;;;;4915079;29;20633;-67
2022/03/31 08:19:48;;;;;;;3.85;3.55;;;3.90;99.90;;;;;;4915897;29;20349;-67
2022/03/31 08:22:15;;;;;;;3.20;3.00;;;3.90;99.90;;;;;;4914257;29;20795;-67
2022/03/31 08:24:41;;;;;;;3.42;3.22;;;3.80;99.90;;;;;;4916106;29;20301;-66
2022/03/31 08:27:09;;;;;;;3.45;3.15;;;3.90;99.90;;;;;;4914555;29;20207;-66
2022/03/31 08:29:35;;;;;;;3.33;3.13;;;3.90;99.90;;;;;;4916475;29;20225;-67
2022/03/31 08:32:04;;;;;;;3.10;3.00;;;4.00;99.90;;;;;;4914592;29;20231;-66
2022/03/31 08:34:31;;;;;;;2.20;2.05;;;4.10;99.90;;;;;;4906241;29;20324;-66
2022/03/31 08:36:59;;;;;;;4.75;3.70;;;4.20;99.90;;;;;;4910147;29;20254;-67
2022/03/31 08:39:25;;;;;;;2.10;2.00;;;4.10;99.90;;;;;;4906946;29;20207;-66
2022/03/31 08:41:53;;;;;;;2.50;2.38;;;4.10;99.90;;;;;;4913054;29;20227;-66
2022/03/31 08:44:21;;;;;;;2.78;2.67;;;4.10;99.90;;;;;;4912961;29;20199;-66
2022/03/31 08:46:50;;;;;;;3.25;3.05;;;4.10;99.90;;;;;;4915350;29;20214;-66
2022/03/31 08:49:16;;;;;;;4.30;3.00;;;4.00;99.90;;;;;;4900342;29;20259;-66
2022/03/31 08:51:43;;;;;;;2.78;2.58;;;3.90;99.90;;;;;;4900865;29;20230;-67
2022/03/31 08:54:11;;;;;;;3.10;2.90;;;3.90;99.90;;;;;;4915873;29;20560;-66
2022/03/31 08:56:39;;;;;;;2.70;2.60;;;4.00;99.90;;;;;;4909636;29;20227;-66
2022/03/31 08:59:06;;;;;;;2.90;2.58;;;3.90;99.90;;;;;;4910993;29;20199;-66
2022/03/31 09:01:33;;;;;;;2.28;1.17;;;4.00;99.90;;;;;;4913066;29;20334;-66
2022/03/31 09:04:01;;;;;;;2.67;2.47;;;4.00;99.90;;;;;;4911130;29;20210;-66
2022/03/31 09:06:29;;;;;;;3.83;2.80;;;4.00;99.90;;;;;;4917579;29;20205;-66
2022/03/31 09:08:56;;;;;;;4.20;2.17;;;4.00;99.90;;;;;;4908920;29;20206;-67
2022/03/31 09:11:28;;;;;;;3.72;3.45;;;4.10;99.90;;;;;;4903764;29;20246;-66
2022/03/31 09:13:56;;;;;;;2.45;2.35;;;4.20;99.90;;;;;;4912743;29;20591;-67
2022/03/31 09:16:31;;;;;;;2.95;2.75;;;4.30;99.90;;;;;;4916263;29;20234;-67
2022/03/31 09:19:02;;;;;;;4.68;3.53;;;4.40;99.90;;;;;;4909819;29;20207;-66
2022/03/31 09:21:30;;;;;;;4.15;3.85;;;4.50;99.90;;;;;;4923023;29;20363;-66
2022/03/31 09:23:57;;;;;;;3.42;3.22;;;4.50;99.90;;;;;;4914834;29;20211;-66
2022/03/31 09:26:27;;;;;;;3.47;3.08;;;4.60;99.90;;;;;;4915557;29;20584;-67
2022/03/31 09:28:55;;;;;;;3.58;3.33;;;4.70;99.90;;;;;;4912954;29;20214;-67
2022/03/31 09:31:24;;;;;;;2.63;2.45;;;4.70;99.90;;;;;;4915312;29;20352;-67
2022/03/31 09:33:56;;;;;;;2.67;2.53;;;4.80;99.90;;;;;;4915175;29;20214;-68
2022/03/31 09:36:25;;;;;;;2.60;2.40;;;4.80;99.90;;;;;;4915267;29;20230;-68
2022/03/31 09:38:54;;;;;;;3.35;3.05;;;4.90;99.90;;;;;;4904674;29;20290;-68
2022/03/31 09:41:22;;;;;;;2.10;2.00;;;5.00;99.90;;;;;;4912480;29;20286;-68
2022/03/31 09:43:50;;;;;;;3.30;3.08;;;5.00;99.90;;;;;;4913802;29;20206;-67
2022/03/31 09:46:22;;;;;;;3.42;2.55;;;5.10;99.90;;;;;;4914909;29;20210;-67
2022/03/31 09:48:49;;;;;;;3.75;2.55;;;5.10;99.90;;;;;;4898222;29;20219;-67
2022/03/31 09:51:17;;;;;;;2.67;2.53;;;5.10;99.90;;;;;;4894976;29;20283;-68
2022/03/31 09:53:43;;;;;;;2.33;2.08;;;5.20;99.90;;;;;;4906036;29;20211;-67
2022/03/31 09:56:11;;;;;;;2.97;2.55;;;5.10;99.90;;;;;;4899769;29;20282;-68
2022/03/31 09:58:39;;;;;;;2.08;1.98;;;5.20;99.90;;;;;;4919613;29;20751;-67
2022/03/31 10:01:06;;;;;;;1.52;1.42;;;5.20;99.90;;;;;;4911563;29;20242;-68
2022/03/31 10:03:34;;;;;;;4.32;4.05;;;5.20;99.90;;;;;;4901315;29;20286;-67
2022/03/31 10:06:02;;;;;;;2.28;2.15;;;5.20;99.90;;;;;;4902917;29;20203;-67
2022/03/31 10:08:34;;;;;;;2.80;2.17;;;5.40;99.90;;;;;;4901063;29;20290;-67
2022/03/31 10:11:01;;;;;;;2.58;2.35;;;5.50;99.90;;;;;;4914969;29;20225;-67
2022/03/31 10:13:36;;;;;;;1.80;1.80;;;5.50;99.90;;;;;;4915046;29;20202;-66
2022/03/31 10:16:08;;;;;;;1.40;1.40;;;5.50;99.90;;;;;;4904070;29;20211;-66
2022/03/31 10:18:36;;;;;;;2.22;1.98;;;5.60;99.90;;;;;;4906429;29;20606;-67
2022/03/31 10:21:03;;;;;;;2.40;2.30;;;5.70;99.90;;;;;;4910190;29;20302;-67
2022/03/31 10:26:25;;;;;;;2.50;2.40;;;5.90;99.90;;;;;;4900159;29;20313;-67
2022/03/31 10:28:56;;;;;;;2.17;2.13;;;6.00;99.90;;;;;;4910881;29;20203;-67
2022/03/31 10:31:34;;;;;;;2.35;1.98;;;6.00;99.90;;;;;;4916863;29;20366;-67
2022/03/31 10:34:03;;;;;;;2.85;2.75;;;6.10;99.90;;;;;;4927383;23;20722;-69
2022/03/31 10:36:38;;;;;;;2.50;2.30;;;6.30;99.90;;;;;;4920403;29;20722;-69
2022/03/31 10:39:08;;;;;;;1.98;1.80;;;6.40;99.90;;;;;;4914478;29;20322;-68
2022/03/31 10:41:37;;;;;;;2.00;1.05;;;6.50;99.90;;;;;;4919293;29;20207;-69
2022/03/31 10:44:15;;;;;;;1.15;1.05;;;6.40;99.90;;;;;;4920626;29;20301;-68
2022/03/31 10:46:44;;;;;;;1.92;1.80;;;6.40;99.90;;;;;;4919529;29;20293;-68
2022/03/31 10:49:17;;;;;;;2.38;2.20;;;6.30;99.90;;;;;;4892810;29;20311;-68
2022/03/31 10:51:46;;;;;;;2.38;2.28;;;6.30;99.90;;;;;;4899397;29;20527;-69
2022/03/31 10:54:25;;;;;;;2.70;2.60;;;6.40;99.90;;;;;;4898443;29;20459;-69
2022/03/31 10:57:03;;;;;;;2.10;2.00;;;6.50;99.90;;;;;;4901598;29;20226;-69
2022/03/31 10:59:29;;;;;;;1.52;1.40;;;6.60;99.90;;;;;;4901758;29;20260;-69
2022/03/31 11:01:56;;;;;;;1.98;1.83;;;6.60;99.90;;;;;;4900070;29;20203;-68
2022/03/31 11:04:24;;;;;;;2.53;2.17;;;6.60;99.90;;;;;;4882558;29;20656;-69
2022/03/31 11:06:55;;;;;;;2.05;1.95;;;6.60;99.90;;;;;;4895903;29;20627;-68
2022/03/31 11:09:23;;;;;;;1.60;1.50;;;6.70;99.90;;;;;;4896610;29;20776;-68
2022/03/31 11:11:51;;;;;;;1.70;1.70;;;6.70;99.90;;;;;;4888469;29;20887;-69
2022/03/31 11:14:18;;;;;;;1.67;1.67;;;6.70;99.90;;;;;;4893845;29;20227;-70
2022/03/31 11:16:46;;;;;;;1.92;1.83;;;6.70;99.90;;;;;;4882614;29;20266;-69
2022/03/31 11:19:13;;;;;;;1.88;1.88;;;6.80;99.90;;;;;;4889051;29;20207;-69
2022/03/31 11:21:43;;;;;;;3.78;1.67;;;6.70;99.90;;;;;;4882329;29;20231;-69
2022/03/31 11:24:11;;;;;;;2.03;1.90;;;6.70;99.90;;;;;;4892466;29;20223;-69
2022/03/31 11:26:40;;;;;;;1.70;1.70;;;6.70;99.90;;;;;;4898771;29;20204;-69
2022/03/31 11:29:11;;;;;;;1.50;1.50;;;6.80;99.90;;;;;;4893669;29;20215;-70
2022/03/31 11:31:38;;;;;;;2.00;1.83;;;6.90;99.90;;;;;;4893073;29;20210;-70
2022/03/31 11:34:16;;;;;;;1.95;1.75;;;7.00;99.20;;;;;;4895436;29;20295;-70
2022/03/31 11:36:44;;;;;;;2.17;2.05;;;7.10;99.10;;;;;;4885950;29;20235;-70
2022/03/31 11:39:11;;;;;;;1.90;1.80;;;7.20;98.60;;;;;;4895585;29;20691;-70
2022/03/31 11:41:39;;;;;;;2.38;2.20;;;7.20;98.50;;;;;;4895148;29;20223;-70
2022/03/31 11:44:07;;;;;;;1.05;1.05;;;7.10;97.60;;;;;;4894843;29;20252;-68
2022/03/31 11:46:39;;;;;;;1.48;1.42;;;7.20;96.90;;;;;;4890533;29;20214;-69
2022/03/31 11:49:14;;;;;;;1.98;1.55;;;7.10;97.00;;;;;;4882666;29;20579;-68
2022/03/31 11:51:40;;;;;;;2.10;1.90;;;7.20;96.80;;;;;;4895495;29;20305;-69
2022/03/31 11:54:09;;;;;;;1.70;1.60;;;7.30;96.50;;;;;;4895067;29;20235;-69
2022/03/31 11:56:36;;;;;;;1.27;1.27;;;7.30;95.40;;;;;;4891330;29;20215;-70
2022/03/31 11:59:03;;;;;;;2.30;1.85;;;7.30;94.70;;;;;;4889545;29;20256;-70
2022/03/31 12:01:33;;;;;;;1.67;1.67;;;7.30;94.20;;;;;;4894759;29;20577;-69
2022/03/31 12:04:00;;;;;;;1.52;1.40;;;7.30;94.70;;;;;;4897743;29;20234;-70
2022/03/31 12:06:28;;;;;;;1.50;1.50;;;7.30;94.30;;;;;;4894162;29;20203;-70
2022/03/31 12:08:55;;;;;;;3.08;1.48;;;7.20;94.20;;;;;;4879174;29;20212;-69
2022/03/31 12:11:25;;;;;;;2.13;2.03;;;7.20;93.70;;;;;;4879615;29;20307;-69
2022/03/31 12:13:55;;;;;;;1.50;1.50;;;7.20;94.30;;;;;;4897998;29;20266;-69
2022/03/31 12:16:23;;;;;;;1.20;1.20;;;7.30;94.20;;;;;;4895727;29;20211;-69
2022/03/31 12:18:55;;;;;;;2.25;1.30;;;7.30;92.90;;;;;;4898519;29;20583;-69
2022/03/31 12:21:21;;;;;;;1.20;1.20;;;7.20;93.00;;;;;;4896990;29;20287;-68
2022/03/31 12:23:48;;;;;;;1.70;1.60;;;7.10;93.60;;;;;;4897156;29;20235;-68
2022/03/31 12:26:18;;;;;;;1.55;1.55;;;7.20;93.10;;;;;;4895130;29;20218;-68
2022/03/31 12:28:47;;;;;;;1.67;1.58;;;7.20;91.70;;;;;;4896944;29;20636;-69
2022/03/31 12:31:23;;;;;;;3.45;1.45;;;7.20;91.20;;;;;;4895802;29;20211;-68
2022/03/31 12:33:52;;;;;;;1.58;1.30;;;7.20;91.60;;;;;;4895660;29;20242;-68
2022/03/31 12:36:25;;;;;;;0.65;0.65;;;7.20;90.50;;;;;;4887995;29;20256;-68
2022/03/31 12:38:53;;;;;;;1.70;1.70;;;7.20;89.60;;;;;;4878305;29;20271;-68
2022/03/31 12:41:23;;;;;;;1.63;1.52;;;7.20;89.50;;;;;;4877411;29;20740;-67
2022/03/31 12:44:00;;;;;;;0.75;0.75;;;7.30;90.10;;;;;;4878178;29;20231;-68
2022/03/31 12:46:30;;;;;;;1.33;1.30;;;7.30;88.40;;;;;;4887052;29;20211;-68
2022/03/31 12:48:58;;;;;;;1.02;1.02;;;7.20;83.10;;;;;;4891914;29;20300;-68
2022/03/31 12:51:25;;;;;;;0.98;0.85;;;7.30;82.70;;;;;;4893736;29;20208;-70
2022/03/31 12:53:53;;;;;;;1.30;1.20;;;7.30;80.80;;;;;;4895267;29;20226;-69
2022/03/31 12:56:27;;;;;;;1.20;1.20;;;7.40;80.00;;;;;;4901003;29;20233;-69
2022/03/31 12:58:55;;;;;;;1.75;1.20;;;7.50;80.30;;;;;;4896649;29;20231;-70
2022/03/31 13:01:25;;;;;;;0.80;0.80;;;7.40;77.10;;;;;;4895977;29;20744;-69
2022/03/31 13:03:52;;;;;;;1.33;1.33;;;7.40;75.30;;;;;;4896047;29;20724;-69
2022/03/31 13:06:19;;;;;;;0.95;0.95;;;7.40;74.00;;;;;;4888386;29;20228;-69
2022/03/31 13:08:46;;;;;;;1.30;1.30;;;7.50;75.20;;;;;;4889494;29;20737;-69
2022/03/31 13:11:13;;;;;;;1.58;1.48;;;7.50;73.90;;;;;;4895444;29;20279;-69
2022/03/31 13:13:40;;;;;;;1.27;1.25;;;7.50;72.80;;;;;;4896246;29;20231;-71
2022/03/31 13:16:07;;;;;;;2.85;1.05;;;7.60;73.30;;;;;;4889702;29;20203;-69
2022/03/31 13:18:35;;;;;;;1.02;1.02;;;7.50;69.20;;;;;;4877329;29;20236;-69
2022/03/31 13:21:03;;;;;;;2.70;1.27;;;7.50;69.40;;;;;;4876657;29;20315;-69
2022/03/31 13:23:30;;;;;;;2.75;1.23;;;7.50;67.60;;;;;;4876779;29;20326;-69
2022/03/31 13:25:56;;;;;;;0.98;0.98;;;7.60;66.90;;;;;;4878319;29;20219;-69
2022/03/31 13:28:23;;;;;;;0.85;0.85;;;7.50;65.30;;;;;;4891716;29;20743;-69
2022/03/31 13:30:50;;;;;;;0.70;0.70;;;7.50;65.10;;;;;;4895173;29;20656;-69
2022/03/31 13:33:16;;;;;;;1.33;0.90;;;7.50;65.00;;;;;;4895150;29;20468;-70
2022/03/31 13:35:44;;;;;;;0.95;0.95;;;7.60;65.50;;;;;;4885749;29;20701;-69
2022/03/31 13:38:12;;;;;;;1.25;1.15;;;7.60;65.30;;;;;;4877079;29;20618;-69
2022/03/31 13:40:38;;;;;;;0.57;0.57;;;7.60;64.80;;;;;;4882898;29;20211;-69
2022/03/31 13:43:07;;;;;;;0.98;0.98;;;7.70;64.30;;;;;;4890203;29;20235;-70
2022/03/31 13:45:33;;;;;;;0.60;0.60;;;7.60;63.10;;;;;;4887172;29;20688;-69
2022/03/31 13:48:00;;;;;;;0.95;0.93;;;7.60;62.50;;;;;;4904752;29;20206;-71
2022/03/31 13:50:27;;;;;;;2.05;0.70;;;7.70;61.10;;;;;;4902573;29;20210;-70
2022/03/31 13:55:40;;;;;;;0.93;0.85;;;7.50;58.00;;;;;;4890885;29;20785;-69
2022/03/31 14:01:10;;;;;;;0.88;0.88;;;7.50;59.00;;;;;;4900246;29;20233;-70
2022/03/31 14:03:39;;;;;;;0.70;0.70;;;7.60;58.70;;;;;;4913408;29;20230;-70
2022/03/31 14:06:06;;;;;;;1.20;1.20;;;7.70;58.00;;;;;;4914382;29;20214;-69
2022/03/31 14:08:35;;;;;;;0.77;0.77;;;7.70;57.90;;;;;;4895088;29;20242;-70
2022/03/31 14:11:02;;;;;;;0.80;0.80;;;7.80;57.20;;;;;;4882842;29;20208;-69
2022/03/31 14:13:29;;;;;;;2.25;0.70;;;7.80;56.90;;;;;;4890256;29;20239;-69
2022/03/31 14:15:56;;;;;;;0.70;0.70;;;7.80;56.10;;;;;;4889471;29;20263;-70
2022/03/31 14:18:22;;;;;;;0.85;0.85;;;7.80;54.80;;;;;;4891523;29;20234;-69
2022/03/31 14:20:49;;;;;;;0.52;0.52;;;7.80;54.80;;;;;;4902650;29;20277;-69
2022/03/31 14:23:16;;;;;;;0.93;0.93;;;7.70;54.00;;;;;;4898540;29;20223;-69
2022/03/31 14:25:44;;;;;;;0.98;0.63;;;7.70;52.50;;;;;;4889623;29;20259;-68
2022/03/31 14:28:10;;;;;;;1.10;0.80;;;7.70;52.20;;;;;;4893462;29;20211;-68
2022/03/31 14:30:38;;;;;;;0.57;0.57;;;7.60;52.10;;;;;;4892487;29;20263;-69
2022/03/31 14:33:06;;;;;;;0.60;0.60;;;7.60;51.00;;;;;;4900409;29;20250;-69
2022/03/31 14:35:33;;;;;;;0.85;0.65;;;7.50;49.80;;;;;;4895012;29;20660;-70
2022/03/31 14:38:01;;;;;;;0.50;0.50;;;7.50;49.80;;;;;;4893746;29;20243;-70
2022/03/31 14:40:28;;;;;;;1.38;0.60;;;7.50;50.50;;;;;;4882844;29;20268;-68
2022/03/31 14:42:56;;;;;;;1.02;0.50;;;7.50;49.50;;;;;;4887719;29;20282;-69
2022/03/31 14:45:23;;;;;;;0.70;0.70;;;7.50;49.40;;;;;;4887905;29;20211;-68
2022/03/31 14:47:50;;;;;;;0.60;0.60;;;7.50;49.80;;;;;;4890165;29;20218;-69
2022/03/31 14:50:16;;;;;;;0.60;0.60;;;7.50;50.30;;;;;;4889350;29;20694;-69
2022/03/31 14:52:44;;;;;;;1.15;1.00;;;7.40;51.20;;;;;;4902778;29;20660;-68
2022/03/31 14:55:11;;;;;;;0.80;0.80;;;7.30;51.90;;;;;;4889978;29;20207;-69
2022/03/31 14:57:38;;;;;;;1.38;1.33;;;7.30;52.60;;;;;;4894158;29;20616;-68
2022/03/31 15:00:09;;;;;;;0.90;0.90;;;7.30;53.30;;;;;;4896143;29;20214;-68
2022/03/31 15:02:35;;;;;;;0.80;0.80;;;7.40;53.20;;;;;;4891880;29;20206;-68
2022/03/31 15:05:03;;;;;;;1.20;1.20;;;7.30;53.20;;;;;;4903414;29;20215;-70
2022/03/31 15:07:32;;;;;;;1.25;0.98;;;7.20;53.90;;;;;;4907890;29;20241;-69
2022/03/31 15:15:28;;;;;;;1.85;1.20;;;7.00;54.00;;;;;;4893444;29;20239;-69
2022/03/31 15:17:55;;;;;;;1.27;1.27;;;7.00;55.10;;;;;;4886148;29;20254;-68
2022/03/31 15:20:21;;;;;;;1.50;1.40;;;6.90;55.80;;;;;;4891260;29;20362;-68
2022/03/31 15:22:48;;;;;;;2.05;1.15;;;6.90;55.80;;;;;;4899549;29;20207;-69
2022/03/31 15:25:15;;;;;;;1.10;0.95;;;6.90;55.20;;;;;;4910881;29;20264;-68
2022/03/31 15:27:41;;;;;;;0.50;0.50;;;6.90;55.30;;;;;;4886555;29;20211;-69
2022/03/31 15:30:09;;;;;;;1.30;0.90;;;6.80;55.50;;;;;;4883228;29;20208;-68
2022/03/31 15:32:37;;;;;;;1.83;1.08;;;6.80;55.10;;;;;;4893886;29;20212;-68
2022/03/31 15:35:04;;;;;;;1.45;0.90;;;6.70;55.10;;;;;;4891346;29;20319;-68
2022/03/31 15:37:31;;;;;;;1.15;0.90;;;6.70;55.50;;;;;;4888423;29;20242;-69
2022/03/31 15:39:57;;;;;;;0.50;0.50;;;6.70;56.20;;;;;;4890498;29;20231;-68
2022/03/31 15:42:24;;;;;;;0.50;0.50;;;6.70;56.10;;;;;;4897088;29;20216;-69
2022/03/31 15:44:51;;;;;;;2.40;1.30;;;6.60;55.60;;;;;;4905614;29;20227;-67
2022/03/31 15:47:19;;;;;;;1.25;1.25;;;6.60;55.30;;;;;;4895556;29;20203;-69
2022/03/31 15:49:47;;;;;;;2.65;0.95;;;6.60;55.60;;;;;;4885997;29;20199;-68
2022/03/31 15:52:14;;;;;;;0.90;0.88;;;6.60;56.60;;;;;;4887775;29;20222;-70
2022/03/31 15:54:41;;;;;;;1.85;0.88;;;6.60;56.80;;;;;;4896676;29;20686;-69
2022/03/31 15:57:09;;;;;;;1.25;1.25;;;6.50;56.90;;;;;;4893621;29;20262;-69
2022/03/31 15:59:36;;;;;;;0.80;0.80;;;6.50;57.30;;;;;;4899469;29;20333;-69
2022/03/31 16:02:03;;;;;;;1.17;1.10;;;6.40;57.80;;;;;;4908033;29;20203;-68
2022/03/31 16:04:30;;;;;;;0.85;0.85;;;6.40;58.30;;;;;;4892235;29;20251;-69
2022/03/31 16:06:58;;;;;;;0.80;0.80;;;6.40;58.50;;;;;;4887032;29;20223;-70
2022/03/31 16:09:25;;;;;;;2.58;1.60;;;6.40;58.80;;;;;;4894537;29;20230;-68
2022/03/31 16:11:53;;;;;;;3.38;0.88;;;6.40;58.20;;;;;;4903983;29;20219;-68
2022/03/31 16:14:19;;;;;;;4.70;2.00;;;6.30;58.60;;;;;;4896562;29;20385;-68
2022/03/31 16:16:46;;;;;;;1.10;1.10;;;6.30;59.20;;;;;;4914143;29;20210;-69
2022/03/31 16:19:14;;;;;;;1.63;0.95;;;6.30;59.30;;;;;;4907981;29;20237;-68
2022/03/31 16:21:41;;;;;;;1.38;0.80;;;6.30;59.80;;;;;;4878041;29;20313;-68
2022/03/31 16:24:09;;;;;;;2.38;2.17;;;6.20;59.70;;;;;;4890676;29;20314;-71
2022/03/31 16:26:35;;;;;;;0.80;0.80;;;6.20;59.20;;;;;;4891582;29;20637;-69
2022/03/31 16:29:02;;;;;;;1.15;0.93;;;6.20;59.80;;;;;;4889653;29;20633;-68
2022/03/31 16:31:29;;;;;;;1.10;1.10;;;6.10;59.30;;;;;;4893799;29;20302;-68
2022/03/31 16:33:55;;;;;;;0.95;0.95;;;6.10;59.70;;;;;;4898291;29;20243;-68
2022/03/31 16:36:23;;;;;;;0.88;0.88;;;6.10;59.80;;;;;;4895912;29;20207;-70
2022/03/31 16:38:50;;;;;;;1.65;1.00;;;6.10;60.10;;;;;;4888947;29;20219;-67
2022/03/31 16:41:19;;;;;;;2.42;1.08;;;6.10;60.80;;;;;;4893268;29;20217;-68
2022/03/31 16:43:47;;;;;;;0.85;0.85;;;6.00;61.20;;;;;;4911908;29;20266;-70
2022/03/31 16:46:15;;;;;;;2.50;1.52;;;6.00;62.10;;;;;;4885164;29;20215;-70
2022/03/31 16:48:42;;;;;;;0.90;0.90;;;6.00;62.20;;;;;;4891538;29;20282;-69
2022/03/31 16:51:09;;;;;;;1.40;1.40;;;5.90;61.90;;;;;;4898230;29;20258;-68
2022/03/31 16:53:37;;;;;;;2.13;1.35;;;5.90;62.60;;;;;;4909183;29;20239;-69
2022/03/31 16:56:05;;;;;;;0.68;0.68;;;5.90;62.80;;;;;;4891079;29;20681;-68
2022/03/31 16:58:33;;;;;;;0.90;0.90;;;5.80;62.70;;;;;;4902897;29;20226;-67
2022/03/31 17:01:00;;;;;;;1.20;1.10;;;5.80;62.80;;;;;;4882080;29;20222;-70
2022/03/31 17:03:26;;;;;;;1.30;0.70;;;5.80;63.50;;;;;;4904623;29;20263;-69
2022/03/31 17:05:53;;;;;;;0.93;0.93;;;5.70;64.40;;;;;;4897762;29;20298;-70
2022/03/31 17:08:20;;;;;;;2.40;0.93;;;5.70;64.50;;;;;;4894232;29;20207;-72
2022/03/31 17:10:47;;;;;;;1.48;0.98;;;5.70;65.80;;;;;;4877696;29;20204;-69
2022/03/31 17:13:13;;;;;;;1.75;1.08;;;5.70;65.80;;;;;;4888424;29;20287;-67